createdAt,value
2018-09-28T00:00:20.337Z,0.00
2018-09-28T00:01:20.329Z,0.00
2018-09-28T00:02:20.317Z,0.00
2018-09-28T00:03:20.366Z,0.00
2018-09-28T00:04:20.301Z,0.00
2018-09-28T00:05:20.314Z,0.00
2018-09-28T00:06:20.278Z,0.00
2018-09-28T00:07:20.258Z,0.00
2018-09-28T00:08:20.280Z,0.00
2018-09-28T00:09:20.244Z,0.00
2018-09-28T00:10:20.248Z,0.00
2018-09-28T00:11:20.221Z,0.00
2018-09-28T00:12:20.212Z,0.00
2018-09-28T00:13:20.245Z,0.00
2018-09-28T00:14:20.199Z,0.00
2018-09-28T00:15:20.175Z,0.00
2018-09-28T00:16:20.205Z,0.00
2018-09-28T00:17:20.151Z,0.00
2018-09-28T00:18:20.190Z,0.00
2018-09-28T00:19:20.153Z,0.00
2018-09-28T00:20:20.121Z,0.00
2018-09-28T00:21:20.131Z,0.00
2018-09-28T00:22:20.128Z,0.00
2018-09-28T00:23:20.094Z,0.00
2018-09-28T00:24:20.106Z,0.00
2018-09-28T00:25:20.099Z,0.00
2018-09-28T00:26:20.060Z,0.00
2018-09-28T00:27:20.072Z,0.00
2018-09-28T00:28:20.037Z,0.00
2018-09-28T00:29:20.082Z,0.00
2018-09-28T00:30:20.025Z,0.00
2018-09-28T00:31:20.017Z,0.00
2018-09-28T00:32:19.991Z,0.00
2018-09-28T00:33:19.979Z,0.00
2018-09-28T00:34:19.994Z,0.00
2018-09-28T00:35:19.961Z,0.00
2018-09-28T00:36:19.952Z,0.00
2018-09-28T00:37:19.940Z,0.00
2018-09-28T00:38:19.952Z,0.00
2018-09-28T00:39:19.949Z,0.00
2018-09-28T00:40:19.920Z,0.00
2018-09-28T00:41:19.915Z,0.00
2018-09-28T00:42:19.889Z,0.00
2018-09-28T00:43:19.873Z,0.00
2018-09-28T00:44:19.867Z,0.00
2018-09-28T00:45:19.884Z,0.00
2018-09-28T00:46:19.846Z,0.00
2018-09-28T00:47:19.859Z,0.00
2018-09-28T00:48:19.825Z,0.00
2018-09-28T00:49:19.828Z,0.00
2018-09-28T00:50:19.873Z,0.00
2018-09-28T00:51:19.796Z,0.00
2018-09-28T00:52:19.781Z,0.00
2018-09-28T00:53:19.770Z,0.00
2018-09-28T00:54:19.773Z,0.00
2018-09-28T00:55:19.799Z,0.00
2018-09-28T00:56:19.740Z,0.00
2018-09-28T00:57:19.742Z,0.00
2018-09-28T00:58:19.758Z,0.00
2018-09-28T00:59:19.703Z,0.00
2018-09-28T01:00:19.754Z,0.00
2018-09-28T01:01:19.685Z,0.00
2018-09-28T01:02:19.677Z,0.00
2018-09-28T01:03:19.673Z,0.00
2018-09-28T01:04:19.691Z,0.00
2018-09-28T01:05:19.671Z,0.00
2018-09-28T01:06:19.653Z,0.00
2018-09-28T01:07:19.628Z,0.00
2018-09-28T01:08:19.627Z,0.00
2018-09-28T01:09:19.611Z,0.00
2018-09-28T01:10:19.595Z,0.00
2018-09-28T01:11:19.635Z,0.00
2018-09-28T01:12:19.576Z,0.00
2018-09-28T01:13:19.553Z,0.00
2018-09-28T01:14:19.563Z,0.00
2018-09-28T01:15:19.539Z,0.00
2018-09-28T01:16:19.548Z,0.00
2018-09-28T01:17:19.531Z,0.00
2018-09-28T01:18:19.509Z,0.00
2018-09-28T01:19:19.502Z,0.00
2018-09-28T01:20:19.490Z,0.00
2018-09-28T01:21:19.512Z,0.00
2018-09-28T01:22:19.463Z,0.00
2018-09-28T01:23:19.458Z,0.00
2018-09-28T01:24:19.443Z,0.00
2018-09-28T01:25:19.433Z,0.00
2018-09-28T01:26:19.425Z,0.00
2018-09-28T01:27:19.442Z,0.00
2018-09-28T01:28:19.394Z,0.00
2018-09-28T01:29:19.387Z,0.00
2018-09-28T01:30:26.444Z,0.00
2018-09-28T01:31:19.359Z,0.00
2018-09-28T01:32:19.378Z,0.00
2018-09-28T01:33:20.033Z,0.00
2018-09-28T01:34:19.325Z,0.00
2018-09-28T01:35:19.317Z,0.00
2018-09-28T01:36:19.308Z,0.00
2018-09-28T01:37:19.328Z,0.00
2018-09-28T01:38:19.287Z,0.00
2018-09-28T01:39:19.287Z,0.00
2018-09-28T01:40:19.278Z,0.00
2018-09-28T01:41:19.265Z,0.00
2018-09-28T01:42:19.269Z,0.00
2018-09-28T01:43:19.252Z,0.00
2018-09-28T01:44:19.229Z,0.00
2018-09-28T01:45:19.227Z,0.00
2018-09-28T01:46:19.205Z,0.00
2018-09-28T01:47:19.188Z,0.00
2018-09-28T01:48:19.207Z,0.00
2018-09-28T01:49:19.173Z,0.00
2018-09-28T01:50:19.181Z,0.00
2018-09-28T01:51:19.208Z,0.00
2018-09-28T01:52:19.146Z,0.00
2018-09-28T01:53:19.171Z,0.00
2018-09-28T01:54:19.112Z,0.00
2018-09-28T01:55:19.108Z,0.00
2018-09-28T01:56:19.097Z,0.00
2018-09-28T01:57:19.083Z,0.00
2018-09-28T01:58:19.098Z,0.00
2018-09-28T01:59:19.135Z,0.00
2018-09-28T02:00:19.071Z,0.00
2018-09-28T02:01:19.038Z,0.00
2018-09-28T02:02:19.027Z,0.00
2018-09-28T02:03:19.021Z,0.00
2018-09-28T02:04:19.125Z,0.00
2018-09-28T02:05:18.997Z,0.00
2018-09-28T02:06:18.988Z,0.00
2018-09-28T02:07:19.039Z,0.00
2018-09-28T02:08:18.972Z,0.00
2018-09-28T02:09:18.984Z,0.00
2018-09-28T02:10:18.953Z,0.00
2018-09-28T02:11:18.959Z,0.00
2018-09-28T02:12:19.011Z,0.00
2018-09-28T02:13:18.914Z,0.00
2018-09-28T02:14:18.909Z,0.00
2018-09-28T02:15:18.946Z,0.00
2018-09-28T02:16:18.877Z,0.00
2018-09-28T02:17:18.866Z,0.00
2018-09-28T02:18:18.866Z,0.00
2018-09-28T02:19:18.846Z,0.00
2018-09-28T02:20:18.869Z,0.00
2018-09-28T02:21:18.831Z,0.00
2018-09-28T02:22:18.818Z,0.00
2018-09-28T02:23:18.804Z,0.00
2018-09-28T02:24:18.823Z,0.00
2018-09-28T02:25:18.815Z,0.00
2018-09-28T02:26:18.780Z,0.00
2018-09-28T02:27:18.791Z,0.00
2018-09-28T02:28:18.762Z,0.00
2018-09-28T02:29:18.745Z,0.00
2018-09-28T02:30:18.753Z,0.00
2018-09-28T02:31:18.749Z,0.00
2018-09-28T02:32:18.710Z,0.00
2018-09-28T02:33:18.734Z,0.00
2018-09-28T02:34:18.695Z,0.00
2018-09-28T02:35:18.687Z,0.00
2018-09-28T02:36:18.701Z,0.00
2018-09-28T02:37:18.657Z,0.00
2018-09-28T02:38:18.648Z,0.00
2018-09-28T02:39:18.631Z,0.00
2018-09-28T02:40:18.636Z,0.00
2018-09-28T02:41:18.659Z,0.00
2018-09-28T02:42:18.599Z,0.00
2018-09-28T02:43:18.624Z,0.00
2018-09-28T02:44:18.583Z,0.00
2018-09-28T02:45:18.594Z,0.00
2018-09-28T02:46:18.609Z,0.00
2018-09-28T02:47:18.550Z,0.00
2018-09-28T02:48:18.540Z,0.00
2018-09-28T02:49:18.532Z,0.00
2018-09-28T02:50:18.519Z,0.00
2018-09-28T02:51:18.504Z,0.00
2018-09-28T02:52:18.534Z,0.00
2018-09-28T02:53:18.484Z,0.00
2018-09-28T02:54:18.474Z,0.00
2018-09-28T02:55:18.491Z,0.00
2018-09-28T02:56:18.454Z,0.00
2018-09-28T02:57:18.475Z,0.00
2018-09-28T02:58:18.462Z,0.00
2018-09-28T02:59:18.433Z,0.00
2018-09-28T03:00:18.412Z,0.00
2018-09-28T03:01:18.426Z,0.00
2018-09-28T03:02:18.415Z,0.00
2018-09-28T03:03:18.378Z,0.00
2018-09-28T03:04:18.380Z,0.00
2018-09-28T03:05:18.367Z,0.00
2018-09-28T03:06:18.421Z,0.00
2018-09-28T03:07:18.386Z,0.00
2018-09-28T03:08:18.318Z,0.00
2018-09-28T03:09:18.317Z,0.00
2018-09-28T03:10:18.303Z,0.00
2018-09-28T03:11:18.292Z,0.00
2018-09-28T03:12:18.294Z,0.00
2018-09-28T03:13:18.324Z,0.00
2018-09-28T03:14:18.260Z,0.00
2018-09-28T03:15:18.248Z,0.00
2018-09-28T03:16:18.276Z,0.00
2018-09-28T03:17:18.239Z,0.00
2018-09-28T03:18:18.259Z,0.00
2018-09-28T03:19:18.202Z,0.00
2018-09-28T03:20:18.200Z,0.00
2018-09-28T03:21:18.205Z,0.00
2018-09-28T03:22:18.168Z,0.00
2018-09-28T03:23:18.205Z,0.00
2018-09-28T03:24:18.173Z,0.00
2018-09-28T03:25:18.138Z,0.00
2018-09-28T03:26:18.131Z,0.00
2018-09-28T03:27:18.137Z,0.00
2018-09-28T03:28:18.133Z,0.00
2018-09-28T03:29:18.121Z,0.00
2018-09-28T03:30:18.087Z,0.00
2018-09-28T03:31:18.075Z,0.00
2018-09-28T03:32:18.078Z,0.00
2018-09-28T03:33:18.061Z,0.00
2018-09-28T03:34:18.069Z,0.00
2018-09-28T03:35:18.040Z,0.00
2018-09-28T03:36:18.054Z,0.00
2018-09-28T03:37:18.050Z,0.00
2018-09-28T03:38:18.004Z,0.00
2018-09-28T03:39:18.024Z,0.00
2018-09-28T03:40:17.980Z,0.00
2018-09-28T03:41:17.963Z,0.00
2018-09-28T03:42:17.972Z,0.00
2018-09-28T03:43:17.960Z,0.00
2018-09-28T03:44:17.971Z,0.00
2018-09-28T03:45:17.945Z,0.00
2018-09-28T03:46:17.927Z,0.00
2018-09-28T03:47:17.906Z,0.00
2018-09-28T03:48:17.899Z,0.00
2018-09-28T03:49:17.880Z,0.00
2018-09-28T03:50:17.910Z,0.00
2018-09-28T03:51:17.918Z,0.00
2018-09-28T03:52:17.877Z,0.00
2018-09-28T03:53:17.874Z,0.00
2018-09-28T03:54:17.828Z,0.00
2018-09-28T03:55:17.837Z,0.00
2018-09-28T03:56:17.821Z,0.00
2018-09-28T03:57:17.799Z,0.00
2018-09-28T03:58:17.800Z,0.00
2018-09-28T03:59:17.815Z,0.00
2018-09-28T04:00:17.807Z,0.00
2018-09-28T04:01:17.764Z,0.00
2018-09-28T04:02:17.767Z,0.00
2018-09-28T04:03:17.740Z,0.00
2018-09-28T04:04:17.723Z,0.00
2018-09-28T04:05:17.722Z,0.00
2018-09-28T04:06:17.737Z,0.00
2018-09-28T04:07:17.692Z,0.00
2018-09-28T04:08:17.677Z,0.00
2018-09-28T04:09:17.671Z,0.00
2018-09-28T04:10:17.661Z,0.00
2018-09-28T04:11:17.701Z,0.00
2018-09-28T04:12:17.636Z,0.00
2018-09-28T04:13:17.625Z,0.00
2018-09-28T04:14:17.614Z,0.00
2018-09-28T04:15:17.660Z,0.00
2018-09-28T04:16:17.651Z,0.00
2018-09-28T04:17:17.596Z,0.00
2018-09-28T04:18:17.602Z,0.00
2018-09-28T04:19:17.562Z,0.00
2018-09-28T04:20:17.559Z,0.00
2018-09-28T04:21:17.580Z,0.00
2018-09-28T04:22:17.555Z,0.00
2018-09-28T04:23:17.536Z,0.00
2018-09-28T04:24:17.525Z,0.00
2018-09-28T04:25:17.521Z,0.00
2018-09-28T04:26:17.530Z,0.00
2018-09-28T04:27:17.491Z,0.00
2018-09-28T04:28:17.463Z,0.00
2018-09-28T04:29:17.459Z,0.00
2018-09-28T04:30:17.448Z,0.00
2018-09-28T04:31:17.471Z,0.00
2018-09-28T04:32:17.473Z,0.00
2018-09-28T04:33:17.410Z,0.00
2018-09-28T04:34:17.411Z,0.00
2018-09-28T04:35:17.393Z,0.00
2018-09-28T04:36:17.373Z,0.00
2018-09-28T04:37:17.403Z,0.00
2018-09-28T04:38:17.357Z,0.00
2018-09-28T04:39:17.349Z,0.00
2018-09-28T04:40:17.351Z,0.00
2018-09-28T04:41:17.335Z,0.00
2018-09-28T04:42:17.372Z,0.00
2018-09-28T04:43:17.310Z,0.00
2018-09-28T04:44:17.300Z,0.00
2018-09-28T04:45:17.383Z,0.00
2018-09-28T04:46:17.288Z,0.00
2018-09-28T04:47:17.295Z,0.00
2018-09-28T04:48:17.281Z,0.00
2018-09-28T04:49:17.240Z,0.00
2018-09-28T04:50:17.246Z,0.00
2018-09-28T04:51:17.224Z,0.00
2018-09-28T04:52:17.216Z,0.00
2018-09-28T04:53:17.219Z,0.00
2018-09-28T04:54:17.196Z,0.00
2018-09-28T04:55:17.183Z,0.00
2018-09-28T04:56:17.182Z,0.00
2018-09-28T04:57:17.155Z,0.00
2018-09-28T04:58:17.206Z,0.00
2018-09-28T04:59:17.153Z,0.00
2018-09-28T05:00:17.120Z,0.00
2018-09-28T05:01:17.156Z,0.00
2018-09-28T05:02:17.097Z,0.00
2018-09-28T05:03:17.110Z,0.00
2018-09-28T05:04:17.080Z,0.00
2018-09-28T05:05:17.069Z,0.00
2018-09-28T05:06:17.091Z,0.00
2018-09-28T05:07:17.044Z,0.00
2018-09-28T05:08:17.086Z,0.00
2018-09-28T05:09:17.035Z,0.00
2018-09-28T05:10:17.020Z,0.00
2018-09-28T05:11:17.034Z,0.00
2018-09-28T05:12:17.000Z,0.00
2018-09-28T05:13:16.980Z,0.00
2018-09-28T05:14:16.991Z,0.00
2018-09-28T05:15:16.980Z,5.62
2018-09-28T05:16:16.946Z,5.62
2018-09-28T05:17:16.951Z,5.62
2018-09-28T05:18:16.943Z,5.62
2018-09-28T05:19:16.938Z,5.62
2018-09-28T05:20:16.911Z,5.62
2018-09-28T05:21:16.899Z,5.62
2018-09-28T05:22:16.906Z,5.62
2018-09-28T05:23:16.930Z,5.62
2018-09-28T05:24:16.901Z,5.62
2018-09-28T05:25:16.922Z,5.62
2018-09-28T05:26:16.842Z,5.62
2018-09-28T05:27:16.834Z,11.25
2018-09-28T05:28:16.839Z,11.25
2018-09-28T05:29:16.807Z,11.25
2018-09-28T05:30:16.842Z,11.25
2018-09-28T05:31:16.910Z,11.25
2018-09-28T05:32:16.898Z,11.25
2018-09-28T05:33:16.766Z,11.25
2018-09-28T05:34:16.757Z,11.25
2018-09-28T05:35:16.794Z,11.25
2018-09-28T05:36:16.741Z,11.25
2018-09-28T05:37:16.754Z,11.25
2018-09-28T05:38:16.716Z,11.25
2018-09-28T05:39:16.716Z,16.88
2018-09-28T05:40:16.696Z,16.88
2018-09-28T05:41:16.753Z,16.88
2018-09-28T05:42:16.685Z,16.88
2018-09-28T05:43:16.663Z,16.88
2018-09-28T05:44:16.685Z,16.88
2018-09-28T05:45:16.638Z,16.88
2018-09-28T05:46:16.729Z,16.88
2018-09-28T05:47:16.614Z,16.88
2018-09-28T05:48:16.622Z,16.88
2018-09-28T05:49:16.600Z,16.88
2018-09-28T05:50:16.649Z,16.88
2018-09-28T05:51:16.696Z,16.88
2018-09-28T05:52:16.573Z,22.50
2018-09-28T05:53:16.562Z,22.50
2018-09-28T05:54:16.557Z,22.50
2018-09-28T05:55:16.536Z,22.50
2018-09-28T05:56:16.570Z,22.50
2018-09-28T05:57:16.508Z,22.50
2018-09-28T05:58:16.507Z,22.50
2018-09-28T05:59:16.498Z,22.50
2018-09-28T06:00:16.488Z,22.50
2018-09-28T06:01:16.497Z,22.50
2018-09-28T06:02:16.486Z,22.50
2018-09-28T06:03:16.453Z,22.50
2018-09-28T06:04:16.445Z,22.50
2018-09-28T06:05:16.436Z,22.50
2018-09-28T06:06:16.423Z,28.12
2018-09-28T06:07:16.427Z,28.12
2018-09-28T06:08:16.391Z,28.12
2018-09-28T06:09:16.399Z,28.12
2018-09-28T06:10:16.376Z,28.12
2018-09-28T06:11:16.378Z,28.12
2018-09-28T06:12:16.382Z,28.12
2018-09-28T06:13:16.403Z,28.12
2018-09-28T06:14:16.335Z,28.12
2018-09-28T06:15:16.322Z,28.12
2018-09-28T06:16:16.310Z,28.12
2018-09-28T06:17:16.331Z,28.12
2018-09-28T06:18:16.298Z,28.12
2018-09-28T06:19:16.284Z,28.12
2018-09-28T06:20:16.322Z,28.12
2018-09-28T06:21:16.255Z,28.12
2018-09-28T06:22:16.273Z,28.12
2018-09-28T06:23:16.276Z,33.75
2018-09-28T06:24:16.284Z,33.75
2018-09-28T06:25:16.218Z,33.75
2018-09-28T06:26:16.201Z,33.75
2018-09-28T06:27:16.190Z,33.75
2018-09-28T06:28:16.215Z,33.75
2018-09-28T06:29:16.167Z,33.75
2018-09-28T06:30:16.182Z,33.75
2018-09-28T06:31:16.144Z,33.75
2018-09-28T06:32:16.134Z,33.75
2018-09-28T06:33:16.199Z,33.75
2018-09-28T06:34:16.115Z,33.75
2018-09-28T06:35:16.099Z,33.75
2018-09-28T06:36:16.153Z,33.75
2018-09-28T06:37:16.086Z,33.75
2018-09-28T06:38:16.077Z,33.75
2018-09-28T06:39:16.107Z,33.75
2018-09-28T06:40:16.057Z,33.75
2018-09-28T06:41:16.042Z,33.75
2018-09-28T06:42:16.106Z,33.75
2018-09-28T06:43:16.015Z,39.38
2018-09-28T06:44:16.027Z,39.38
2018-09-28T06:45:16.006Z,39.38
2018-09-28T06:46:15.989Z,39.38
2018-09-28T06:47:15.976Z,39.38
2018-09-28T06:48:16.031Z,39.38
2018-09-28T06:49:15.981Z,39.38
2018-09-28T06:50:15.977Z,39.38
2018-09-28T06:51:16.032Z,39.38
2018-09-28T06:52:15.945Z,39.38
2018-09-28T06:53:15.925Z,39.38
2018-09-28T06:54:15.992Z,39.38
2018-09-28T06:55:15.919Z,39.38
2018-09-28T06:56:15.880Z,39.38
2018-09-28T06:57:15.897Z,39.38
2018-09-28T06:58:15.921Z,39.38
2018-09-28T06:59:15.851Z,39.38
2018-09-28T07:00:15.954Z,39.38
2018-09-28T07:01:15.825Z,39.38
2018-09-28T07:02:15.817Z,39.38
2018-09-28T07:03:15.859Z,39.38
2018-09-28T07:04:15.790Z,39.38
2018-09-28T07:05:15.848Z,45.00
2018-09-28T07:06:15.831Z,45.00
2018-09-28T07:07:15.782Z,45.00
2018-09-28T07:08:15.746Z,45.00
2018-09-28T07:09:15.785Z,45.00
2018-09-28T07:10:15.728Z,45.00
2018-09-28T07:11:15.741Z,45.00
2018-09-28T07:12:15.743Z,45.00
2018-09-28T07:13:15.694Z,45.00
2018-09-28T07:14:15.694Z,45.00
2018-09-28T07:15:15.707Z,45.00
2018-09-28T07:16:15.736Z,45.00
2018-09-28T07:17:15.648Z,45.00
2018-09-28T07:18:15.745Z,45.00
2018-09-28T07:19:15.644Z,45.00
2018-09-28T07:20:15.633Z,45.00
2018-09-28T07:21:15.640Z,45.00
2018-09-28T07:22:15.606Z,45.00
2018-09-28T07:23:15.625Z,45.00
2018-09-28T07:24:15.609Z,45.00
2018-09-28T07:25:15.622Z,45.00
2018-09-28T07:26:15.581Z,45.00
2018-09-28T07:27:15.589Z,45.00
2018-09-28T07:28:15.530Z,45.00
2018-09-28T07:29:15.542Z,45.00
2018-09-28T07:30:15.552Z,50.62
2018-09-28T07:31:15.507Z,50.62
2018-09-28T07:32:15.529Z,50.62
2018-09-28T07:33:15.496Z,50.62
2018-09-28T07:34:15.472Z,50.62
2018-09-28T07:35:15.456Z,50.62
2018-09-28T07:36:16.159Z,50.62
2018-09-28T07:37:15.551Z,50.62
2018-09-28T07:38:15.433Z,50.62
2018-09-28T07:39:15.423Z,50.62
2018-09-28T07:40:15.408Z,50.62
2018-09-28T07:41:15.396Z,50.62
2018-09-28T07:42:15.498Z,50.62
2018-09-28T07:43:15.432Z,50.62
2018-09-28T07:44:15.416Z,50.62
2018-09-28T07:45:15.371Z,50.62
2018-09-28T07:46:15.352Z,50.62
2018-09-28T07:47:15.366Z,50.62
2018-09-28T07:48:15.366Z,50.62
2018-09-28T07:49:15.376Z,50.62
2018-09-28T07:50:15.311Z,50.62
2018-09-28T07:51:15.284Z,50.62
2018-09-28T07:52:15.283Z,50.62
2018-09-28T07:53:15.295Z,50.62
2018-09-28T07:54:15.251Z,50.62
2018-09-28T07:55:15.258Z,56.25
2018-09-28T07:56:15.249Z,56.25
2018-09-28T07:57:15.246Z,56.25
2018-09-28T07:58:15.243Z,56.25
2018-09-28T07:59:15.235Z,56.25
2018-09-28T08:00:15.212Z,56.25
2018-09-28T08:01:15.186Z,56.25
2018-09-28T08:02:15.231Z,56.25
2018-09-28T08:03:15.251Z,56.25
2018-09-28T08:04:15.227Z,56.25
2018-09-28T08:05:15.178Z,56.25
2018-09-28T08:06:15.184Z,56.25
2018-09-28T08:07:15.134Z,56.25
2018-09-28T08:08:15.129Z,56.25
2018-09-28T08:09:15.097Z,56.25
2018-09-28T08:10:15.093Z,56.25
2018-09-28T08:11:15.072Z,56.25
2018-09-28T08:12:15.062Z,56.25
2018-09-28T08:13:15.081Z,56.25
2018-09-28T08:14:15.051Z,56.25
2018-09-28T08:15:15.032Z,61.88
2018-09-28T08:16:15.037Z,61.88
2018-09-28T08:17:15.005Z,61.88
2018-09-28T08:18:15.039Z,61.88
2018-09-28T08:19:14.995Z,61.88
2018-09-28T08:20:14.980Z,61.88
2018-09-28T08:21:14.988Z,61.88
2018-09-28T08:22:14.966Z,61.88
2018-09-28T08:23:15.005Z,61.88
2018-09-28T08:24:14.945Z,61.88
2018-09-28T08:25:14.949Z,61.88
2018-09-28T08:26:14.919Z,61.88
2018-09-28T08:27:14.938Z,61.88
2018-09-28T08:28:14.908Z,61.88
2018-09-28T08:29:14.906Z,61.88
2018-09-28T08:30:14.902Z,61.88
2018-09-28T08:31:14.875Z,67.50
2018-09-28T08:32:14.852Z,67.50
2018-09-28T08:33:14.848Z,67.50
2018-09-28T08:34:14.862Z,67.50
2018-09-28T08:35:14.816Z,67.50
2018-09-28T08:36:14.929Z,67.50
2018-09-28T08:37:14.826Z,67.50
2018-09-28T08:38:14.837Z,67.50
2018-09-28T08:39:14.828Z,67.50
2018-09-28T08:40:14.797Z,67.50
2018-09-28T08:41:14.770Z,67.50
2018-09-28T08:42:14.749Z,67.50
2018-09-28T08:43:14.767Z,67.50
2018-09-28T08:44:14.809Z,73.12
2018-09-28T08:45:14.712Z,73.12
2018-09-28T08:46:14.707Z,73.12
2018-09-28T08:47:14.687Z,73.12
2018-09-28T08:48:14.692Z,73.12
2018-09-28T08:49:14.725Z,73.12
2018-09-28T08:50:14.691Z,73.12
2018-09-28T08:51:14.649Z,73.12
2018-09-28T08:52:14.630Z,73.12
2018-09-28T08:53:14.635Z,73.12
2018-09-28T08:54:14.653Z,73.12
2018-09-28T08:55:14.620Z,78.75
2018-09-28T08:56:14.587Z,78.75
2018-09-28T08:57:14.596Z,78.75
2018-09-28T08:58:14.589Z,78.75
2018-09-28T08:59:14.596Z,78.75
2018-09-28T09:00:14.554Z,78.75
2018-09-28T09:01:14.540Z,78.75
2018-09-28T09:02:14.613Z,78.75
2018-09-28T09:03:14.520Z,84.38
2018-09-28T09:04:14.546Z,84.38
2018-09-28T09:05:14.490Z,84.38
2018-09-28T09:06:14.503Z,84.38
2018-09-28T09:07:14.476Z,84.38
2018-09-28T09:08:14.463Z,84.38
2018-09-28T09:09:14.481Z,84.38
2018-09-28T09:10:14.460Z,90.00
2018-09-28T09:11:14.429Z,90.00
2018-09-28T09:12:14.454Z,90.00
2018-09-28T09:13:14.411Z,90.00
2018-09-28T09:14:14.473Z,90.00
2018-09-28T09:15:14.392Z,95.62
2018-09-28T09:16:14.397Z,95.62
2018-09-28T09:17:14.382Z,101.25
2018-09-28T09:18:14.418Z,106.88
2018-09-28T09:19:14.407Z,112.50
2018-09-28T09:20:14.329Z,123.75
2018-09-28T09:21:14.347Z,118.12
2018-09-28T09:22:14.327Z,112.50
2018-09-28T09:23:14.300Z,112.50
2018-09-28T09:24:14.309Z,118.12
2018-09-28T09:25:14.311Z,118.12
2018-09-28T09:26:14.283Z,118.12
2018-09-28T09:27:14.257Z,118.12
2018-09-28T09:28:15.064Z,118.12
2018-09-28T09:29:14.240Z,118.12
2018-09-28T09:30:14.296Z,118.12
2018-09-28T09:31:14.221Z,118.12
2018-09-28T09:32:14.201Z,118.12
2018-09-28T09:33:14.238Z,118.12
2018-09-28T09:34:14.182Z,123.75
2018-09-28T09:35:14.209Z,123.75
2018-09-28T09:36:14.171Z,123.75
2018-09-28T09:37:14.149Z,123.75
2018-09-28T09:38:14.172Z,123.75
2018-09-28T09:39:14.143Z,123.75
2018-09-28T09:40:14.141Z,123.75
2018-09-28T09:41:14.130Z,123.75
2018-09-28T09:42:14.108Z,123.75
2018-09-28T09:43:14.085Z,123.75
2018-09-28T09:44:15.103Z,129.38
2018-09-28T09:45:14.102Z,129.38
2018-09-28T09:46:14.118Z,129.38
2018-09-28T09:47:14.046Z,129.38
2018-09-28T09:48:14.045Z,123.75
2018-09-28T09:49:14.071Z,129.38
2018-09-28T09:50:14.023Z,129.38
2018-09-28T09:51:14.043Z,129.38
2018-09-28T09:52:14.005Z,129.38
2018-09-28T09:53:13.995Z,129.38
2018-09-28T09:54:13.967Z,129.38
2018-09-28T09:55:13.974Z,129.38
2018-09-28T09:56:13.978Z,129.38
2018-09-28T09:57:13.937Z,135.00
2018-09-28T09:58:13.957Z,135.00
2018-09-28T09:59:13.916Z,135.00
2018-09-28T10:00:13.929Z,140.62
2018-09-28T10:01:13.935Z,140.62
2018-09-28T10:02:13.903Z,140.62
2018-09-28T10:03:13.874Z,146.25
2018-09-28T10:04:13.862Z,146.25
2018-09-28T10:05:13.849Z,146.25
2018-09-28T10:06:13.889Z,151.88
2018-09-28T10:07:13.838Z,157.50
2018-09-28T10:08:13.824Z,157.50
2018-09-28T10:09:13.809Z,157.50
2018-09-28T10:10:13.801Z,157.50
2018-09-28T10:11:13.792Z,157.50
2018-09-28T10:12:13.851Z,163.12
2018-09-28T10:13:13.766Z,163.12
2018-09-28T10:14:13.759Z,163.12
2018-09-28T10:15:13.746Z,163.12
2018-09-28T10:16:13.747Z,168.75
2018-09-28T10:17:13.750Z,174.38
2018-09-28T10:18:13.710Z,174.38
2018-09-28T10:19:13.741Z,174.38
2018-09-28T10:20:13.729Z,174.38
2018-09-28T10:21:13.681Z,174.38
2018-09-28T10:22:13.715Z,185.62
2018-09-28T10:23:13.662Z,241.88
2018-09-28T10:24:13.657Z,371.25
2018-09-28T10:25:13.636Z,528.75
2018-09-28T10:26:13.641Z,635.62
2018-09-28T10:27:13.665Z,680.62
2018-09-28T10:28:13.769Z,714.38
2018-09-28T10:29:13.603Z,736.88
2018-09-28T10:30:13.586Z,742.50
2018-09-28T10:31:13.574Z,736.88
2018-09-28T10:32:13.598Z,748.12
2018-09-28T10:33:13.549Z,759.38
2018-09-28T10:34:13.582Z,793.12
2018-09-28T10:35:13.538Z,832.50
2018-09-28T10:36:13.525Z,877.50
2018-09-28T10:37:13.513Z,871.88
2018-09-28T10:38:13.520Z,894.38
2018-09-28T10:39:13.531Z,911.25
2018-09-28T10:40:13.492Z,922.50
2018-09-28T10:41:13.535Z,961.88
2018-09-28T10:42:13.467Z,1012.50
2018-09-28T10:43:13.490Z,1001.25
2018-09-28T10:44:13.525Z,990.00
2018-09-28T10:45:13.495Z,1012.50
2018-09-28T10:46:13.415Z,1023.75
2018-09-28T10:47:13.409Z,1063.12
2018-09-28T10:48:13.422Z,1096.88
2018-09-28T10:49:13.390Z,1136.25
2018-09-28T10:50:13.378Z,1170.00
2018-09-28T10:51:13.394Z,1141.88
2018-09-28T10:52:13.478Z,1164.38
2018-09-28T10:53:13.489Z,1226.25
2018-09-28T10:54:13.339Z,1260.00
2018-09-28T10:55:13.328Z,1260.00
2018-09-28T10:56:13.314Z,1305.00
2018-09-28T10:57:13.323Z,1355.62
2018-09-28T10:58:13.367Z,1389.38
2018-09-28T10:59:13.293Z,1411.88
2018-09-28T11:00:13.313Z,1535.62
2018-09-28T11:01:13.274Z,1614.38
2018-09-28T11:02:13.265Z,1665.00
2018-09-28T11:03:13.329Z,1743.75
2018-09-28T11:04:13.266Z,1850.62
2018-09-28T11:05:13.271Z,2019.38
2018-09-28T11:06:13.240Z,2283.75
2018-09-28T11:07:13.209Z,2469.38
2018-09-28T11:08:13.204Z,2632.50
2018-09-28T11:09:13.211Z,2778.75
2018-09-28T11:10:13.197Z,2964.38
2018-09-28T11:11:13.217Z,3043.12
2018-09-28T11:12:13.160Z,3054.38
2018-09-28T11:13:13.187Z,3234.38
2018-09-28T11:14:13.139Z,3442.50
2018-09-28T11:15:13.165Z,3712.50
2018-09-28T11:16:13.123Z,4095.00
2018-09-28T11:17:13.117Z,4753.12
2018-09-28T11:18:13.151Z,5608.12
2018-09-28T11:19:13.096Z,6159.38
2018-09-28T11:20:13.079Z,6373.12
2018-09-28T11:21:13.090Z,6024.38
2018-09-28T11:22:13.061Z,5765.62
2018-09-28T11:23:13.059Z,5850.00
2018-09-28T11:24:13.062Z,5917.50
2018-09-28T11:25:13.033Z,5962.50
2018-09-28T11:26:13.079Z,5490.00
2018-09-28T11:27:13.060Z,4983.75
2018-09-28T11:28:13.041Z,4466.25
2018-09-28T11:29:13.016Z,4173.75
2018-09-28T11:30:12.993Z,4055.62
2018-09-28T11:31:13.014Z,3898.12
2018-09-28T11:32:12.969Z,3706.88
2018-09-28T11:33:12.998Z,3498.75
2018-09-28T11:34:12.979Z,3335.62
2018-09-28T11:35:12.942Z,2992.50
2018-09-28T11:36:12.958Z,2638.12
2018-09-28T11:37:12.918Z,2396.25
2018-09-28T11:38:12.914Z,2171.25
2018-09-28T11:39:12.965Z,2098.12
2018-09-28T11:40:12.918Z,1963.12
2018-09-28T11:41:12.877Z,1822.50
2018-09-28T11:42:12.892Z,1726.88
2018-09-28T11:43:12.920Z,1642.50
2018-09-28T11:44:12.853Z,1546.88
2018-09-28T11:45:12.856Z,1468.12
2018-09-28T11:46:12.841Z,1411.88
2018-09-28T11:47:12.852Z,1395.00
2018-09-28T11:48:12.832Z,1361.25
2018-09-28T11:49:12.869Z,1333.12
2018-09-28T11:50:12.798Z,1316.25
2018-09-28T11:51:12.814Z,1288.12
2018-09-28T11:52:12.806Z,1265.62
2018-09-28T11:53:12.772Z,1243.12
2018-09-28T11:54:12.763Z,1226.25
2018-09-28T11:55:12.759Z,1215.00
2018-09-28T11:56:12.749Z,1181.25
2018-09-28T11:57:12.786Z,1181.25
2018-09-28T11:58:12.727Z,1170.00
2018-09-28T11:59:12.719Z,1158.75
2018-09-28T12:00:12.716Z,1153.12
2018-09-28T12:01:12.737Z,1153.12
2018-09-28T12:02:12.739Z,1141.88
2018-09-28T12:03:12.706Z,1136.25
2018-09-28T12:04:12.706Z,1136.25
2018-09-28T12:05:12.689Z,1130.62
2018-09-28T12:06:12.674Z,1125.00
2018-09-28T12:07:12.650Z,1113.75
2018-09-28T12:08:12.630Z,1108.12
2018-09-28T12:09:13.141Z,1096.88
2018-09-28T12:10:12.617Z,1102.50
2018-09-28T12:11:12.599Z,1096.88
2018-09-28T12:12:12.650Z,1080.00
2018-09-28T12:13:12.583Z,1080.00
2018-09-28T12:14:12.605Z,1080.00
2018-09-28T12:15:12.604Z,1091.25
2018-09-28T12:16:12.560Z,1080.00
2018-09-28T12:17:12.568Z,1068.75
2018-09-28T12:18:12.565Z,1063.12
2018-09-28T12:19:12.564Z,1040.62
2018-09-28T12:20:12.533Z,1029.38
2018-09-28T12:21:12.541Z,1029.38
2018-09-28T12:22:12.495Z,1029.38
2018-09-28T12:23:12.483Z,1029.38
2018-09-28T12:24:12.571Z,1023.75
2018-09-28T12:25:12.497Z,1006.88
2018-09-28T12:26:12.465Z,1006.88
2018-09-28T12:27:12.500Z,1001.25
2018-09-28T12:28:12.438Z,995.62
2018-09-28T12:29:12.459Z,990.00
2018-09-28T12:30:12.471Z,990.00
2018-09-28T12:31:12.411Z,995.62
2018-09-28T12:32:12.411Z,1001.25
2018-09-28T12:33:12.413Z,995.62
2018-09-28T12:34:12.381Z,1001.25
2018-09-28T12:35:12.418Z,1006.88
2018-09-28T12:36:12.373Z,990.00
2018-09-28T12:37:12.352Z,978.75
2018-09-28T12:38:12.339Z,1018.12
2018-09-28T12:39:12.390Z,1012.50
2018-09-28T12:40:12.621Z,995.62
2018-09-28T12:41:12.319Z,995.62
2018-09-28T12:42:12.332Z,990.00
2018-09-28T12:43:12.298Z,978.75
2018-09-28T12:44:12.318Z,984.38
2018-09-28T12:45:12.441Z,990.00
2018-09-28T12:46:12.264Z,990.00
2018-09-28T12:47:12.249Z,978.75
2018-09-28T12:48:12.244Z,973.12
2018-09-28T12:49:12.251Z,961.88
2018-09-28T12:50:12.302Z,961.88
2018-09-28T12:51:12.249Z,967.50
2018-09-28T12:52:12.204Z,933.75